createdAt,value
2023-04-28T00:02:18.242Z,33.92
2023-04-28T00:04:45.767Z,34.65
2023-04-28T00:07:12.608Z,33.40
2023-04-28T00:09:39.263Z,34.80
2023-04-28T00:12:06.514Z,33.72
2023-04-28T00:14:33.241Z,34.67
2023-04-28T00:16:59.971Z,34.58
2023-04-28T00:19:26.741Z,34.03
2023-04-28T00:21:53.433Z,33.78
2023-04-28T00:24:20.375Z,35.13
2023-04-28T00:26:47.027Z,34.05
2023-04-28T00:29:13.696Z,33.15
2023-04-28T00:31:40.424Z,34.30
2023-04-28T00:34:07.209Z,34.65
2023-04-28T00:36:34.042Z,34.08
2023-04-28T00:39:00.821Z,34.28
2023-04-28T00:41:27.643Z,34.20
2023-04-28T00:43:54.384Z,36.50
2023-04-28T00:46:24.829Z,35.67
2023-04-28T00:48:51.811Z,35.65
2023-04-28T00:51:18.647Z,34.78
2023-04-28T00:53:45.602Z,34.25
2023-04-28T00:56:12.813Z,35.63
2023-04-28T00:58:39.595Z,36.03
2023-04-28T01:01:08.217Z,35.72
2023-04-28T01:03:37.953Z,34.50
2023-04-28T01:06:06.250Z,34.97
2023-04-28T01:08:35.365Z,34.83
2023-04-28T01:11:04.194Z,35.45
2023-04-28T01:13:58.974Z,37.20
2023-04-28T01:16:27.385Z,36.35
2023-04-28T01:18:55.695Z,35.25
2023-04-28T01:21:32.318Z,36.38
2023-04-28T01:24:02.174Z,36.47
2023-04-28T01:26:29.122Z,35.08
2023-04-28T01:28:55.901Z,35.88
2023-04-28T01:31:22.920Z,36.88
2023-04-28T01:33:49.748Z,35.33
2023-04-28T01:36:17.121Z,37.38
2023-04-28T01:38:43.999Z,37.17
2023-04-28T01:41:13.267Z,35.15
2023-04-28T01:43:39.996Z,38.80
2023-04-28T01:46:06.730Z,36.60
2023-04-28T01:48:33.528Z,35.80
2023-04-28T01:51:00.216Z,35.72
2023-04-28T01:53:27.067Z,35.60
2023-04-28T01:55:54.274Z,34.63
2023-04-28T01:58:21.277Z,37.15
2023-04-28T02:00:47.986Z,37.08
2023-04-28T02:03:15.862Z,37.17
2023-04-28T02:05:42.872Z,35.78
2023-04-28T02:08:09.609Z,36.28
2023-04-28T02:10:36.344Z,36.45
2023-04-28T02:13:03.050Z,36.75
2023-04-28T02:15:30.509Z,41.65
2023-04-28T02:17:57.307Z,35.50
2023-04-28T02:20:24.023Z,36.83
2023-04-28T02:22:51.122Z,36.67
2023-04-28T02:25:18.020Z,37.00
2023-04-28T02:27:44.774Z,36.80
2023-04-28T02:30:11.926Z,37.58
2023-04-28T02:32:39.241Z,37.30
2023-04-28T02:35:06.570Z,35.47
2023-04-28T02:37:33.427Z,37.92
2023-04-28T02:40:00.161Z,35.67
2023-04-28T02:42:29.109Z,36.78
2023-04-28T02:44:55.950Z,37.47
2023-04-28T02:47:22.648Z,36.10
2023-04-28T02:49:49.717Z,37.45
2023-04-28T02:52:16.502Z,36.95
2023-04-28T02:54:43.202Z,35.67
2023-04-28T02:57:10.613Z,35.78
2023-04-28T02:59:37.370Z,36.13
2023-04-28T03:02:04.116Z,36.75
2023-04-28T03:04:31.532Z,36.38
2023-04-28T03:06:58.557Z,36.35
2023-04-28T03:09:25.592Z,35.92
2023-04-28T03:11:52.310Z,36.15
2023-04-28T03:14:19.405Z,35.85
2023-04-28T03:16:46.515Z,35.67
2023-04-28T03:19:14.817Z,35.92
2023-04-28T03:21:41.962Z,36.50
2023-04-28T03:24:08.738Z,35.50
2023-04-28T03:26:36.141Z,36.33
2023-04-28T03:29:04.004Z,37.78
2023-04-28T03:31:31.141Z,36.63
2023-04-28T03:33:59.658Z,36.33
2023-04-28T03:36:27.528Z,36.42
2023-04-28T03:38:56.408Z,37.35
2023-04-28T03:41:23.153Z,36.42
2023-04-28T03:44:10.114Z,37.40
2023-04-28T03:46:45.607Z,38.03
2023-04-28T03:49:12.612Z,37.63
2023-04-28T03:51:39.612Z,36.95
2023-04-28T03:54:06.996Z,38.42
2023-04-28T03:56:34.501Z,37.15
2023-04-28T03:59:02.807Z,36.88
2023-04-28T04:01:29.451Z,36.30
2023-04-28T04:03:56.981Z,36.45
2023-04-28T04:06:23.985Z,38.00
2023-04-28T04:08:51.198Z,36.85
2023-04-28T04:11:17.997Z,37.33
2023-04-28T04:13:44.649Z,38.05
2023-04-28T04:16:17.407Z,37.50
2023-04-28T04:18:44.619Z,49.20
2023-04-28T04:21:23.152Z,38.17
2023-04-28T04:23:51.554Z,36.78
2023-04-28T04:26:18.207Z,38.75
2023-04-28T04:28:46.964Z,38.95
2023-04-28T04:31:13.840Z,38.60
2023-04-28T04:33:40.642Z,39.70
2023-04-28T04:36:07.576Z,37.78
2023-04-28T04:38:34.627Z,37.70
2023-04-28T04:41:10.490Z,39.15
2023-04-28T04:43:37.356Z,37.13
2023-04-28T04:46:04.974Z,37.58
2023-04-28T04:48:32.322Z,37.92
2023-04-28T04:50:59.079Z,48.85
2023-04-28T04:53:26.810Z,48.72
2023-04-28T04:55:55.655Z,48.97
2023-04-28T04:58:22.432Z,51.70
2023-04-28T05:03:34.540Z,49.85
2023-04-28T05:06:02.873Z,49.10
2023-04-28T05:08:36.209Z,49.50
2023-04-28T05:11:04.128Z,52.25
2023-04-28T05:13:31.052Z,49.83
2023-04-28T05:16:01.775Z,47.03
2023-04-28T05:18:40.004Z,48.63
2023-04-28T05:21:06.821Z,46.33
2023-04-28T05:23:33.580Z,44.70
2023-04-28T05:26:00.370Z,45.83
2023-04-28T05:28:27.080Z,46.35
2023-04-28T05:30:55.457Z,45.97
2023-04-28T05:33:23.927Z,45.22
2023-04-28T05:35:50.708Z,46.20
2023-04-28T05:38:17.488Z,43.05
2023-04-28T05:40:45.267Z,44.05
2023-04-28T05:43:12.841Z,42.17
2023-04-28T05:45:39.720Z,42.45
2023-04-28T05:48:06.430Z,44.20
2023-04-28T05:50:33.630Z,43.20
2023-04-28T05:53:01.762Z,44.47
2023-04-28T05:55:29.880Z,43.63
2023-04-28T05:57:56.595Z,38.28
2023-04-28T06:00:23.301Z,42.70
2023-04-28T06:02:53.593Z,40.75
2023-04-28T06:05:21.552Z,42.65
2023-04-28T06:07:51.254Z,39.33
2023-04-28T06:10:19.373Z,42.22
2023-04-28T06:12:46.101Z,41.17
2023-04-28T06:15:12.739Z,41.08
2023-04-28T06:17:39.719Z,41.08
2023-04-28T06:20:07.639Z,42.85
2023-04-28T06:22:34.330Z,41.88
2023-04-28T06:25:01.130Z,40.13
2023-04-28T06:27:34.126Z,39.95
2023-04-28T06:30:00.924Z,41.33
2023-04-28T06:32:27.638Z,41.20
2023-04-28T06:34:55.045Z,41.17
2023-04-28T06:37:23.384Z,41.22
2023-04-28T06:39:50.037Z,41.03
2023-04-28T06:42:18.817Z,39.90
2023-04-28T06:44:52.816Z,37.75
2023-04-28T06:47:19.900Z,42.17
2023-04-28T06:49:47.256Z,39.38
2023-04-28T06:52:14.635Z,41.08
2023-04-28T06:54:41.291Z,39.28
2023-04-28T06:57:08.814Z,39.40
2023-04-28T06:59:35.677Z,37.95
2023-04-28T07:02:02.317Z,36.42
2023-04-28T07:04:29.058Z,37.13
2023-04-28T07:06:55.852Z,37.38
2023-04-28T07:09:22.767Z,37.90
2023-04-28T07:11:49.348Z,36.75
2023-04-28T07:14:16.312Z,36.47
2023-04-28T07:16:43.464Z,36.42
2023-04-28T07:19:10.375Z,35.40
2023-04-28T07:21:37.304Z,34.38
2023-04-28T07:24:04.115Z,37.13
2023-04-28T07:26:30.972Z,35.50
2023-04-28T07:28:57.592Z,36.60
2023-04-28T07:31:24.262Z,37.13
2023-04-28T07:33:51.527Z,36.47
2023-04-28T07:36:18.626Z,36.35
2023-04-28T07:38:45.359Z,38.05
2023-04-28T07:41:12.411Z,37.03
2023-04-28T07:43:39.744Z,36.20
2023-04-28T07:46:08.297Z,37.42
2023-04-28T07:48:35.618Z,38.70
2023-04-28T07:51:02.659Z,36.85
2023-04-28T07:53:29.377Z,39.42
2023-04-28T07:55:56.098Z,39.63
2023-04-28T07:58:22.819Z,39.47
2023-04-28T08:00:49.495Z,39.25
2023-04-28T08:03:16.772Z,40.75
2023-04-28T08:05:45.090Z,41.72
2023-04-28T08:08:11.801Z,43.72
2023-04-28T08:10:41.598Z,39.88
2023-04-28T08:13:08.372Z,40.67
2023-04-28T08:15:35.059Z,40.05
2023-04-28T08:18:02.143Z,40.33
2023-04-28T08:20:30.123Z,41.72
2023-04-28T08:22:56.806Z,42.72
2023-04-28T08:25:23.484Z,39.78
2023-04-28T08:27:50.153Z,38.60
2023-04-28T08:30:16.782Z,38.90
2023-04-28T08:32:43.721Z,37.03
2023-04-28T08:35:10.568Z,38.80
2023-04-28T08:37:37.383Z,38.58
2023-04-28T08:40:09.477Z,37.78
2023-04-28T08:42:40.052Z,40.22
2023-04-28T08:45:07.270Z,38.92
2023-04-28T08:47:40.327Z,39.95
2023-04-28T08:50:08.367Z,41.75
2023-04-28T08:52:36.290Z,41.75
2023-04-28T08:55:07.892Z,39.88
2023-04-28T08:57:44.709Z,42.03
2023-04-28T09:00:12.612Z,40.72
2023-04-28T09:02:42.509Z,41.85
2023-04-28T09:05:11.209Z,40.22
2023-04-28T09:07:38.180Z,38.95
2023-04-28T09:10:17.974Z,42.00
2023-04-28T09:12:44.995Z,42.33
2023-04-28T09:17:59.405Z,38.10
2023-04-28T09:20:28.361Z,41.70
2023-04-28T09:23:11.984Z,41.40
2023-04-28T09:25:38.650Z,39.25
2023-04-28T09:28:22.049Z,38.50
2023-04-28T09:30:49.003Z,39.53
2023-04-28T09:33:18.596Z,40.10
2023-04-28T09:35:47.071Z,39.30
2023-04-28T09:38:14.493Z,40.20
2023-04-28T09:40:54.164Z,38.20
2023-04-28T09:43:32.341Z,37.75
2023-04-28T09:46:02.095Z,33.63
2023-04-28T09:48:32.850Z,34.22
2023-04-28T09:51:04.494Z,35.35
2023-04-28T09:53:31.901Z,33.13
2023-04-28T09:56:00.805Z,33.90
2023-04-28T09:58:28.769Z,36.10
2023-04-28T10:01:00.574Z,35.50
2023-04-28T10:03:29.936Z,34.13
2023-04-28T10:05:58.773Z,35.42
2023-04-28T10:08:27.281Z,35.92
2023-04-28T10:10:55.267Z,32.83
2023-04-28T10:13:23.205Z,33.55
2023-04-28T10:15:51.040Z,34.20
2023-04-28T10:18:18.320Z,33.03
2023-04-28T10:20:53.341Z,37.08
2023-04-28T10:23:58.046Z,38.95
2023-04-28T10:26:36.784Z,38.75
2023-04-28T10:29:03.762Z,36.50
2023-04-28T10:31:30.475Z,39.35
2023-04-28T10:34:21.943Z,40.80
2023-04-28T10:36:50.970Z,40.53
2023-04-28T10:39:17.960Z,40.05
2023-04-28T10:41:48.784Z,39.70
2023-04-28T10:44:30.669Z,39.45
2023-04-28T10:47:04.956Z,42.25
2023-04-28T10:50:03.120Z,39.50
2023-04-28T10:52:39.584Z,39.70
2023-04-28T10:55:37.067Z,40.63
2023-04-28T10:58:16.256Z,38.05
2023-04-28T11:00:45.150Z,40.47
2023-04-28T11:03:46.608Z,38.25
2023-04-28T11:06:28.957Z,37.60
2023-04-28T11:08:57.944Z,40.80
2023-04-28T11:11:34.585Z,40.38
2023-04-28T11:14:20.031Z,42.03
2023-04-28T11:19:26.386Z,40.25
2023-04-28T11:21:55.929Z,40.03
2023-04-28T11:24:25.503Z,40.65
2023-04-28T11:26:54.860Z,42.25
2023-04-28T11:29:38.429Z,42.83
2023-04-28T11:32:07.890Z,46.05
2023-04-28T11:34:35.403Z,45.22
2023-04-28T11:37:02.857Z,42.42
2023-04-28T11:39:33.877Z,38.95
2023-04-28T11:42:02.889Z,40.80
2023-04-28T11:44:31.162Z,40.33
2023-04-28T11:47:00.919Z,42.15
2023-04-28T11:49:30.383Z,41.63
2023-04-28T11:52:00.076Z,39.15
2023-04-28T11:54:28.241Z,42.45
2023-04-28T11:56:57.272Z,41.10
2023-04-28T11:59:33.638Z,42.30
2023-04-28T12:02:03.146Z,41.25
2023-04-28T12:04:41.120Z,42.80
2023-04-28T12:07:16.119Z,48.08
2023-04-28T12:12:12.963Z,47.72
2023-04-28T12:14:59.281Z,46.33
2023-04-28T12:17:41.300Z,46.22
2023-04-28T12:20:10.759Z,45.92
2023-04-28T12:22:48.692Z,42.45
2023-04-28T12:25:17.468Z,42.83
2023-04-28T12:28:02.409Z,41.65
2023-04-28T12:30:30.866Z,46.83
2023-04-28T12:32:58.015Z,46.47
2023-04-28T12:35:26.240Z,46.40
2023-04-28T12:37:53.688Z,47.42
2023-04-28T12:40:20.585Z,47.78
2023-04-28T12:42:47.309Z,51.78
2023-04-28T12:45:16.104Z,51.25
2023-04-28T12:47:43.229Z,49.78
2023-04-28T12:50:10.180Z,49.25
2023-04-28T12:52:37.426Z,49.53
2023-04-28T12:55:04.895Z,50.75
2023-04-28T12:57:31.781Z,48.47
2023-04-28T12:59:58.394Z,47.33
2023-04-28T13:02:25.450Z,49.17
2023-04-28T13:04:53.058Z,49.45
2023-04-28T13:07:20.150Z,47.55
2023-04-28T13:09:47.614Z,46.38
2023-04-28T13:12:14.960Z,46.97
2023-04-28T13:14:42.096Z,48.15
2023-04-28T13:17:09.928Z,48.47
2023-04-28T13:19:37.301Z,49.83
2023-04-28T13:22:05.757Z,50.03
2023-04-28T13:24:35.634Z,50.97
2023-04-28T13:27:03.914Z,49.10
2023-04-28T13:29:30.539Z,49.95
2023-04-28T13:31:57.241Z,48.65
2023-04-28T13:34:23.893Z,50.65
2023-04-28T13:36:53.780Z,53.53
2023-04-28T13:39:21.895Z,49.13
2023-04-28T13:41:49.382Z,50.58
2023-04-28T13:44:16.727Z,50.75
2023-04-28T13:46:43.762Z,53.40
2023-04-28T13:49:10.624Z,51.95
2023-04-28T13:51:37.588Z,63.70
2023-04-28T13:54:05.363Z,48.15
2023-04-28T13:56:32.368Z,49.70
2023-04-28T13:58:59.027Z,49.25
2023-04-28T14:01:26.167Z,49.20
2023-04-28T14:03:52.993Z,51.33
2023-04-28T14:06:19.928Z,63.35
2023-04-28T14:08:46.688Z,51.55
2023-04-28T14:11:13.592Z,49.15
2023-04-28T14:13:40.890Z,50.17
2023-04-28T14:16:08.685Z,84.07
2023-04-28T14:18:35.669Z,54.88
2023-04-28T14:21:03.152Z,46.92
2023-04-28T14:23:30.056Z,51.95
2023-04-28T14:25:57.921Z,44.38
2023-04-28T14:28:24.733Z,58.47
2023-04-28T14:30:54.358Z,50.60
2023-04-28T14:33:21.049Z,47.30
2023-04-28T14:35:47.976Z,50.08
2023-04-28T14:38:14.700Z,60.08
2023-04-28T14:40:42.833Z,40.35
2023-04-28T14:43:09.667Z,48.53
2023-04-28T14:45:37.966Z,40.63
2023-04-28T14:48:06.603Z,42.22
2023-04-28T14:50:33.455Z,48.95
2023-04-28T14:53:05.368Z,40.30
2023-04-28T14:55:32.861Z,35.33
2023-04-28T14:57:59.531Z,36.88
2023-04-28T15:00:26.172Z,35.70
2023-04-28T15:02:53.086Z,37.00
2023-04-28T15:05:20.020Z,35.65
2023-04-28T15:07:47.462Z,37.70
2023-04-28T15:10:14.132Z,43.20
2023-04-28T15:12:41.768Z,44.45
2023-04-28T15:15:08.959Z,46.63
2023-04-28T15:17:35.666Z,64.47
2023-04-28T15:20:02.317Z,46.30
2023-04-28T15:22:28.974Z,58.58
2023-04-28T15:24:55.936Z,56.30
2023-04-28T15:27:26.028Z,51.85
2023-04-28T15:29:52.694Z,78.18
2023-04-28T15:32:19.344Z,44.25
2023-04-28T15:34:46.110Z,40.50
2023-04-28T15:37:38.923Z,39.58
2023-04-28T15:40:06.577Z,43.47
2023-04-28T15:42:34.486Z,44.60
2023-04-28T15:45:02.359Z,45.30
2023-04-28T15:47:29.266Z,46.88
2023-04-28T15:49:58.756Z,44.72
2023-04-28T15:52:26.721Z,45.25
2023-04-28T15:54:55.855Z,38.92
2023-04-28T15:57:22.717Z,32.03
2023-04-28T15:59:51.480Z,33.42
2023-04-28T16:02:18.945Z,33.40
2023-04-28T16:04:46.647Z,34.67
2023-04-28T16:07:13.534Z,31.02
2023-04-28T16:09:40.419Z,32.60
2023-04-28T16:12:07.428Z,34.92
2023-04-28T16:14:34.857Z,30.40
2023-04-28T16:17:01.719Z,35.15
2023-04-28T16:19:29.458Z,30.10
2023-04-28T16:21:56.063Z,28.80
2023-04-28T16:24:22.824Z,30.67
2023-04-28T16:26:51.133Z,31.73
2023-04-28T16:29:17.795Z,30.10
2023-04-28T16:31:45.480Z,28.35
2023-04-28T16:34:12.836Z,28.33
2023-04-28T16:36:40.077Z,30.23
2023-04-28T16:39:07.198Z,33.30
2023-04-28T16:41:34.004Z,34.88
2023-04-28T16:44:00.808Z,30.90
2023-04-28T16:46:27.538Z,32.22
2023-04-28T16:48:54.242Z,29.42
2023-04-28T16:51:21.949Z,27.58
2023-04-28T16:53:48.570Z,29.48
2023-04-28T16:56:15.377Z,31.20
2023-04-28T16:58:42.047Z,31.65
2023-04-28T17:01:08.898Z,30.98
2023-04-28T17:03:41.048Z,34.47
2023-04-28T17:06:08.251Z,32.53
2023-04-28T17:08:35.129Z,31.25
2023-04-28T17:11:04.101Z,33.22
2023-04-28T17:13:33.991Z,30.42
2023-04-28T17:16:01.108Z,30.27
2023-04-28T17:18:28.444Z,37.08
2023-04-28T17:20:55.886Z,32.20
2023-04-28T17:23:22.644Z,31.70
2023-04-28T17:25:49.382Z,34.45
2023-04-28T17:28:16.125Z,38.95
2023-04-28T17:30:47.185Z,37.40
2023-04-28T17:33:15.062Z,32.20
2023-04-28T17:35:41.845Z,32.88
2023-04-28T17:38:08.740Z,42.22
2023-04-28T17:40:35.394Z,36.20
2023-04-28T17:43:03.809Z,36.35
2023-04-28T17:45:30.511Z,33.38
2023-04-28T17:48:00.108Z,31.88
2023-04-28T17:50:26.992Z,34.25
2023-04-28T17:52:54.115Z,34.63
2023-04-28T17:55:20.996Z,31.83
2023-04-28T17:57:47.683Z,31.17
2023-04-28T18:00:14.527Z,31.13
2023-04-28T18:02:41.548Z,33.92
2023-04-28T18:05:08.898Z,30.75
2023-04-28T18:07:36.218Z,34.88
2023-04-28T18:10:02.927Z,31.73
2023-04-28T18:12:29.705Z,37.70
2023-04-28T18:14:57.704Z,42.70
2023-04-28T18:17:25.906Z,39.08
2023-04-28T18:19:55.143Z,44.15
2023-04-28T18:22:21.983Z,37.15
2023-04-28T18:24:49.615Z,39.15
2023-04-28T18:27:16.654Z,55.85
2023-04-28T18:29:44.897Z,52.75
2023-04-28T18:32:14.460Z,46.40
2023-04-28T18:34:41.547Z,53.13
2023-04-28T18:37:09.209Z,42.65
2023-04-28T18:39:36.306Z,46.97
2023-04-28T18:42:04.115Z,35.72
2023-04-28T18:44:31.086Z,37.60
2023-04-28T18:46:58.334Z,29.13
2023-04-28T18:49:25.600Z,29.38
2023-04-28T18:51:52.230Z,28.60
2023-04-28T18:54:19.004Z,29.23
2023-04-28T18:56:46.024Z,27.95
2023-04-28T18:59:12.617Z,27.63
2023-04-28T19:01:39.485Z,27.23
2023-04-28T19:04:06.441Z,27.80
2023-04-28T19:06:33.665Z,23.98
2023-04-28T19:09:00.413Z,23.92
2023-04-28T19:11:27.054Z,24.33
2023-04-28T19:13:54.587Z,21.42
2023-04-28T19:16:21.446Z,20.50
2023-04-28T19:18:48.785Z,22.02
2023-04-28T19:21:15.725Z,19.48
2023-04-28T19:23:43.145Z,21.73
2023-04-28T19:26:09.953Z,16.83
2023-04-28T19:28:36.700Z,17.33
2023-04-28T19:31:04.250Z,17.42
2023-04-28T19:33:30.920Z,16.45
2023-04-28T19:35:58.283Z,18.83
2023-04-28T19:38:25.045Z,19.92
2023-04-28T19:40:58.985Z,21.13
2023-04-28T19:43:25.609Z,22.75
2023-04-28T19:45:52.332Z,25.77
2023-04-28T19:48:19.673Z,21.92
2023-04-28T19:50:46.536Z,23.02
2023-04-28T19:53:13.525Z,22.17
2023-04-28T19:55:40.183Z,25.33
2023-04-28T19:58:07.171Z,23.00
2023-04-28T20:00:33.969Z,23.98
2023-04-28T20:03:00.912Z,22.65
2023-04-28T20:05:28.760Z,23.33
2023-04-28T20:07:56.370Z,26.73
2023-04-28T20:10:23.882Z,27.58
2023-04-28T20:12:50.789Z,26.23
2023-04-28T20:15:18.014Z,25.77
2023-04-28T20:17:44.833Z,28.33
2023-04-28T20:20:13.234Z,27.45
2023-04-28T20:22:43.376Z,29.20
2023-04-28T20:25:10.762Z,29.73
2023-04-28T20:27:37.822Z,32.33
2023-04-28T20:30:05.161Z,37.67
2023-04-28T20:32:32.211Z,44.13
2023-04-28T20:35:02.704Z,45.53
2023-04-28T20:37:29.970Z,46.70
2023-04-28T20:39:56.951Z,46.30
2023-04-28T20:42:24.784Z,49.60
2023-04-28T20:44:51.776Z,47.55
2023-04-28T20:47:18.742Z,50.92
2023-04-28T20:49:46.327Z,53.55
2023-04-28T20:52:13.637Z,48.22
2023-04-28T20:54:40.540Z,57.80
2023-04-28T20:57:09.098Z,62.42
2023-04-28T20:59:36.792Z,55.38
2023-04-28T21:02:03.697Z,69.78
2023-04-28T21:04:30.466Z,69.55
2023-04-28T21:06:57.104Z,70.80
2023-04-28T21:09:25.030Z,68.28
2023-04-28T21:11:52.181Z,69.57
2023-04-28T21:14:19.069Z,68.93
2023-04-28T21:16:45.969Z,64.30
2023-04-28T21:19:12.794Z,65.68
2023-04-28T21:21:39.513Z,63.85
2023-04-28T21:24:07.802Z,73.65
2023-04-28T21:26:34.564Z,70.75
2023-04-28T21:29:01.333Z,61.85
2023-04-28T21:31:28.142Z,59.78
2023-04-28T21:33:55.052Z,63.85
2023-04-28T21:36:21.676Z,63.72
2023-04-28T21:38:48.986Z,67.63
2023-04-28T21:41:15.800Z,62.80
2023-04-28T21:43:42.690Z,73.07
2023-04-28T21:46:09.572Z,75.60
2023-04-28T21:48:37.346Z,72.72
2023-04-28T21:51:04.320Z,71.97
2023-04-28T21:53:31.049Z,74.38
2023-04-28T21:55:57.724Z,72.47
2023-04-28T21:58:24.433Z,74.68
2023-04-28T22:00:51.466Z,67.40
2023-04-28T22:03:18.620Z,68.80
2023-04-28T22:05:45.506Z,71.20
2023-04-28T22:08:13.148Z,70.18
2023-04-28T22:10:41.187Z,68.40
2023-04-28T22:13:07.892Z,71.18
2023-04-28T22:15:34.731Z,75.97
2023-04-28T22:18:02.017Z,79.63
2023-04-28T22:20:28.877Z,72.45
2023-04-28T22:22:57.327Z,63.15
2023-04-28T22:25:23.950Z,67.38
2023-04-28T22:27:51.046Z,64.57
2023-04-28T22:30:17.952Z,69.22
2023-04-28T22:32:44.858Z,70.57
2023-04-28T22:35:16.314Z,65.18
2023-04-28T22:37:43.506Z,73.20
2023-04-28T22:40:10.985Z,58.55
2023-04-28T22:42:38.856Z,54.38
2023-04-28T22:45:06.461Z,50.72
2023-04-28T22:47:34.164Z,52.42
2023-04-28T22:50:03.289Z,49.42
2023-04-28T22:52:29.920Z,60.83
2023-04-28T22:54:56.756Z,67.90
2023-04-28T22:57:23.415Z,61.30
2023-04-28T22:59:50.440Z,65.70
2023-04-28T23:02:17.403Z,74.70
2023-04-28T23:04:44.294Z,90.38
2023-04-28T23:07:11.022Z,76.90
2023-04-28T23:09:37.770Z,72.95
2023-04-28T23:12:04.857Z,73.97
2023-04-28T23:14:33.001Z,73.13
2023-04-28T23:16:59.810Z,68.93
2023-04-28T23:19:26.424Z,67.55
2023-04-28T23:21:54.283Z,61.55
2023-04-28T23:24:21.030Z,63.13
2023-04-28T23:26:47.748Z,68.18
2023-04-28T23:29:14.375Z,65.63
2023-04-28T23:31:41.149Z,65.40
2023-04-28T23:34:08.219Z,70.03
2023-04-28T23:36:35.952Z,56.10
2023-04-28T23:39:02.629Z,60.45
2023-04-28T23:41:29.331Z,57.90
2023-04-28T23:43:56.715Z,55.42
2023-04-28T23:46:23.758Z,57.72
2023-04-28T23:48:50.601Z,59.63
2023-04-28T23:51:17.231Z,62.75
2023-04-28T23:53:44.223Z,60.63
2023-04-28T23:56:10.921Z,54.35
2023-04-28T23:58:38.366Z,56.20
